createdAt,value
2023-01-13T00:02:12.508Z,41.60
2023-01-13T00:07:18.718Z,40.50
2023-01-13T00:12:24.244Z,42.00
2023-01-13T00:17:30.023Z,43.63
2023-01-13T00:22:38.718Z,38.13
2023-01-13T00:27:44.487Z,39.33
2023-01-13T00:32:51.073Z,39.33
2023-01-13T00:43:19.198Z,39.33
2023-01-13T00:48:25.671Z,36.22
2023-01-13T00:53:32.168Z,35.08
2023-01-13T00:58:38.357Z,37.92
2023-01-13T01:03:44.026Z,37.17
2023-01-13T01:08:49.414Z,40.63
2023-01-13T01:13:55.673Z,40.13
2023-01-13T01:19:01.879Z,42.55
2023-01-13T01:29:16.049Z,32.47
2023-01-13T01:34:21.564Z,36.80
2023-01-13T01:39:27.806Z,30.83
2023-01-13T01:44:45.704Z,40.63
2023-01-13T01:49:51.793Z,34.40
2023-01-13T01:55:02.823Z,34.58
2023-01-13T02:00:09.718Z,36.42
2023-01-13T02:05:18.954Z,35.47
2023-01-13T02:10:27.500Z,38.30
2023-01-13T02:15:39.489Z,31.38
2023-01-13T02:20:55.455Z,28.95
2023-01-13T02:26:19.696Z,31.50
2023-01-13T02:31:44.339Z,33.85
2023-01-13T02:37:00.992Z,33.63
2023-01-13T02:42:39.704Z,32.92
2023-01-13T02:47:47.544Z,37.05
2023-01-13T02:52:58.123Z,32.38
2023-01-13T02:58:04.898Z,35.03
2023-01-13T03:03:10.680Z,30.90
2023-01-13T03:08:19.841Z,36.78
2023-01-13T03:13:40.988Z,35.45
2023-01-13T03:19:01.674Z,40.20
2023-01-13T03:24:14.387Z,36.00
2023-01-13T03:29:38.449Z,38.47
2023-01-13T03:35:04.312Z,43.03
2023-01-13T03:40:13.538Z,35.58
2023-01-13T03:45:20.377Z,34.75
2023-01-13T03:50:33.604Z,35.05
2023-01-13T03:55:41.162Z,42.63
2023-01-13T04:00:53.788Z,33.60
2023-01-13T04:06:02.944Z,41.17
2023-01-13T04:11:12.819Z,27.88
2023-01-13T04:16:19.054Z,42.67
2023-01-13T04:21:24.897Z,42.22
2023-01-13T04:26:30.670Z,45.75
2023-01-13T04:31:36.535Z,38.38
2023-01-13T04:36:42.126Z,46.25
2023-01-13T04:41:59.808Z,32.40
2023-01-13T04:47:06.414Z,44.25
2023-01-13T04:57:16.934Z,40.70
2023-01-13T05:02:22.853Z,43.97
2023-01-13T05:07:29.013Z,38.58
2023-01-13T05:12:52.415Z,60.08
2023-01-13T05:17:58.336Z,47.28
2023-01-13T05:23:22.209Z,55.67
2023-01-13T05:28:27.885Z,34.20
2023-01-13T05:33:35.770Z,46.73
2023-01-13T05:38:41.601Z,61.95
2023-01-13T05:43:47.216Z,41.33
2023-01-13T05:48:53.029Z,46.53
2023-01-13T05:54:00.741Z,36.05
2023-01-13T05:59:06.668Z,38.70
2023-01-13T06:04:12.608Z,50.78
2023-01-13T06:09:18.701Z,33.33
2023-01-13T06:14:24.807Z,25.67
2023-01-13T06:19:30.647Z,44.92
2023-01-13T06:24:36.020Z,39.28
2023-01-13T06:29:41.677Z,36.13
2023-01-13T06:34:49.242Z,32.05
2023-01-13T06:39:58.419Z,33.72
2023-01-13T06:45:04.188Z,39.55
2023-01-13T06:50:09.501Z,40.45
2023-01-13T06:55:15.399Z,31.55
2023-01-13T07:00:21.235Z,41.15
2023-01-13T07:10:32.776Z,33.97
2023-01-13T07:15:38.450Z,33.03
2023-01-13T07:20:45.086Z,34.38
2023-01-13T07:25:51.830Z,32.08
2023-01-13T07:30:58.061Z,32.67
2023-01-13T07:36:05.296Z,38.65
2023-01-13T07:41:32.472Z,32.92
2023-01-13T07:46:38.238Z,30.70
2023-01-13T07:51:46.472Z,35.00
2023-01-13T07:56:51.781Z,32.95
2023-01-13T08:01:57.385Z,33.47
2023-01-13T08:07:03.005Z,35.55
2023-01-13T08:12:26.872Z,34.83
2023-01-13T08:17:32.589Z,32.83
2023-01-13T08:22:38.519Z,32.63
2023-01-13T08:32:49.725Z,31.35
2023-01-13T08:37:55.227Z,31.13
2023-01-13T08:43:01.024Z,30.50
2023-01-13T08:48:07.345Z,32.47
2023-01-13T08:53:12.851Z,31.73
2023-01-13T08:58:18.637Z,32.15
2023-01-13T09:03:24.338Z,35.08
2023-01-13T09:08:30.309Z,34.75
2023-01-13T09:18:40.859Z,36.15
2023-01-13T09:23:49.783Z,36.00
2023-01-13T09:28:55.439Z,36.63
2023-01-13T09:34:24.333Z,35.55
2023-01-13T09:39:30.077Z,37.03
2023-01-13T09:49:42.263Z,36.97
2023-01-13T09:54:58.743Z,39.58
2023-01-13T10:00:29.999Z,36.38
2023-01-13T10:05:47.302Z,37.25
2023-01-13T10:11:01.050Z,31.23
2023-01-13T10:16:07.223Z,38.00
2023-01-13T10:21:28.210Z,37.40
2023-01-13T10:26:39.970Z,44.25
2023-01-13T10:31:46.086Z,53.22
2023-01-13T10:37:17.585Z,49.55
2023-01-13T10:42:25.665Z,47.67
2023-01-13T10:47:31.301Z,45.55
2023-01-13T10:52:39.661Z,55.77
2023-01-13T10:57:45.351Z,57.17
2023-01-13T11:03:08.029Z,46.45
2023-01-13T11:08:24.730Z,58.80
2023-01-13T11:13:31.202Z,57.70
2023-01-13T11:19:25.486Z,47.83
2023-01-13T11:24:46.604Z,54.85
2023-01-13T11:30:21.467Z,58.63
2023-01-13T11:35:27.159Z,52.53
2023-01-13T11:40:45.522Z,31.40
2023-01-13T11:46:11.498Z,40.63
2023-01-13T11:51:17.754Z,59.80
2023-01-13T11:56:29.410Z,59.83
2023-01-13T12:01:58.664Z,53.83
2023-01-13T12:07:24.756Z,52.40
2023-01-13T12:12:49.030Z,60.67
2023-01-13T12:18:13.026Z,68.63
2023-01-13T12:23:39.340Z,51.53
2023-01-13T12:29:00.336Z,68.18
2023-01-13T12:34:26.530Z,76.32
2023-01-13T12:40:02.268Z,62.65
2023-01-13T12:45:14.023Z,46.73
2023-01-13T12:50:28.830Z,47.83
2023-01-13T12:55:47.116Z,26.73
2023-01-13T13:01:17.803Z,60.25
2023-01-13T13:06:25.681Z,68.22
2023-01-13T13:11:54.227Z,66.47
2023-01-13T13:17:02.533Z,66.05
2023-01-13T13:22:18.444Z,62.45
2023-01-13T13:27:25.131Z,50.53
2023-01-13T13:32:50.244Z,62.95
2023-01-13T13:38:22.943Z,75.43
2023-01-13T13:43:50.359Z,71.75
2023-01-13T13:49:03.037Z,66.07
2023-01-13T13:54:22.351Z,69.03
2023-01-13T13:59:35.101Z,64.82
2023-01-13T14:04:42.117Z,64.22
2023-01-13T14:09:49.270Z,63.42
2023-01-13T14:15:01.263Z,57.05
2023-01-13T14:20:09.743Z,62.05
2023-01-13T14:25:33.176Z,64.72
2023-01-13T14:30:39.235Z,60.28
2023-01-13T14:40:53.784Z,61.28
2023-01-13T14:46:04.235Z,58.42
2023-01-13T14:51:12.530Z,60.67
2023-01-13T14:56:36.391Z,64.45
2023-01-13T15:01:42.897Z,57.88
2023-01-13T15:06:50.170Z,66.85
2023-01-13T15:11:56.024Z,61.92
2023-01-13T15:17:01.700Z,55.87
2023-01-13T15:22:07.401Z,62.27
2023-01-13T15:27:34.180Z,60.40
2023-01-13T15:32:40.205Z,58.13
2023-01-13T15:37:46.379Z,58.75
2023-01-13T15:43:10.485Z,55.45
2023-01-13T15:48:16.044Z,54.17
2023-01-13T15:53:21.821Z,50.93
2023-01-13T15:58:28.456Z,51.53
2023-01-13T16:03:34.061Z,50.80
2023-01-13T16:08:42.745Z,47.00
2023-01-13T16:13:48.235Z,45.63
2023-01-13T16:18:55.737Z,42.20
2023-01-13T16:24:01.417Z,42.17
2023-01-13T16:29:08.832Z,41.20
2023-01-13T16:34:14.784Z,42.10
2023-01-13T16:39:24.271Z,37.50
2023-01-13T16:44:30.124Z,37.83
2023-01-13T16:49:36.133Z,38.63
2023-01-13T16:59:53.125Z,33.28
2023-01-13T17:04:58.542Z,35.97
2023-01-13T17:10:04.079Z,36.57
2023-01-13T17:15:09.903Z,36.00
2023-01-13T17:20:17.753Z,32.47
2023-01-13T17:25:23.767Z,34.00
2023-01-13T17:30:29.504Z,30.80
2023-01-13T17:35:37.218Z,31.83
2023-01-13T17:40:42.472Z,31.05
2023-01-13T17:45:48.216Z,35.93
2023-01-13T17:50:57.751Z,31.20
2023-01-13T17:56:02.987Z,35.88
2023-01-13T18:01:12.996Z,37.90
2023-01-13T18:06:22.878Z,34.97
2023-01-13T18:11:28.126Z,33.55
2023-01-13T18:16:34.737Z,36.70
2023-01-13T18:21:58.442Z,37.30
2023-01-13T18:27:22.540Z,34.42
2023-01-13T18:32:33.108Z,32.75
2023-01-13T18:37:41.847Z,31.67
2023-01-13T18:42:53.012Z,30.52
2023-01-13T18:48:04.515Z,29.65
2023-01-13T18:53:13.339Z,29.75
2023-01-13T18:58:18.955Z,29.13
2023-01-13T19:03:30.105Z,29.53
2023-01-13T19:08:36.547Z,29.23
2023-01-13T19:13:42.065Z,28.90
2023-01-13T19:18:48.016Z,29.65
2023-01-13T19:23:55.870Z,29.52
2023-01-13T19:29:01.638Z,29.27
2023-01-13T19:34:06.939Z,29.30
2023-01-13T19:39:12.237Z,29.50
2023-01-13T19:44:35.924Z,29.13
2023-01-13T19:49:41.519Z,32.35
2023-01-13T19:54:49.955Z,30.80
2023-01-13T19:59:55.598Z,28.58
2023-01-13T20:05:02.398Z,35.03
2023-01-13T20:10:07.974Z,30.13
2023-01-13T20:15:13.670Z,31.25
2023-01-13T20:20:21.820Z,32.65
2023-01-13T20:25:27.934Z,34.50
2023-01-13T20:30:33.243Z,38.03
2023-01-13T20:35:38.454Z,34.92
2023-01-13T20:40:43.694Z,34.95
2023-01-13T20:45:49.229Z,34.50
2023-01-13T20:50:56.614Z,42.20
2023-01-13T20:56:02.904Z,43.35
2023-01-13T21:01:08.473Z,34.33
2023-01-13T21:06:13.924Z,44.40
2023-01-13T21:11:38.898Z,41.75
2023-01-13T21:16:44.827Z,41.63
2023-01-13T21:21:50.249Z,38.90
2023-01-13T21:27:02.311Z,40.73
2023-01-13T21:32:08.412Z,41.40
2023-01-13T21:37:14.171Z,48.70
2023-01-13T21:42:38.523Z,52.60
2023-01-13T21:47:50.506Z,60.35
2023-01-13T21:52:56.144Z,58.88
2023-01-13T21:58:02.788Z,63.60
2023-01-13T22:03:08.604Z,61.50
2023-01-13T22:08:15.122Z,54.40
2023-01-13T22:13:38.916Z,62.47
2023-01-13T22:18:44.753Z,58.28
2023-01-13T22:23:50.541Z,60.88
2023-01-13T22:28:56.863Z,72.45
2023-01-13T22:39:08.882Z,66.40
2023-01-13T22:44:14.436Z,68.35
2023-01-13T22:49:20.043Z,74.20
2023-01-13T22:54:25.618Z,71.00
2023-01-13T22:59:33.001Z,75.03
2023-01-13T23:04:39.741Z,69.88
2023-01-13T23:09:45.682Z,67.32
2023-01-13T23:14:51.109Z,66.80
2023-01-13T23:19:56.994Z,72.80
2023-01-13T23:25:02.551Z,71.40
2023-01-13T23:30:09.012Z,74.73
2023-01-13T23:35:14.829Z,68.03
2023-01-13T23:40:20.382Z,68.75
2023-01-13T23:45:26.049Z,64.53
2023-01-13T23:50:31.399Z,71.13
2023-01-13T23:55:37.263Z,70.53
